sensor_id;sensor_type;location;lat;lon;timestamp;P1;durP1;ratioP1;P2;durP2;ratioP2
43256;SDS011;28860;43.212;27.934;2022-07-30T03:50:44;20.33;;;13.57;;
43256;SDS011;28860;43.212;27.934;2022-07-30T03:56:23;19.17;;;13.75;;
43256;SDS011;28860;43.212;27.934;2022-07-30T03:58:51;16.38;;;12.85;;
43256;SDS011;28860;43.212;27.934;2022-07-30T04:01:27;25.15;;;15.07;;
43256;SDS011;28860;43.212;27.934;2022-07-30T04:03:53;25.33;;;15.80;;
43256;SDS011;28860;43.212;27.934;2022-07-30T04:09:23;22.00;;;15.40;;
43256;SDS011;28860;43.212;27.934;2022-07-30T04:11:50;21.70;;;14.93;;
43256;SDS011;28860;43.212;27.934;2022-07-30T04:17:03;27.58;;;17.30;;
43256;SDS011;28860;43.212;27.934;2022-07-30T04:22:32;28.65;;;19.48;;
43256;SDS011;28860;43.212;27.934;2022-07-30T04:25:00;23.85;;;18.05;;
43256;SDS011;28860;43.212;27.934;2022-07-30T04:27:30;31.83;;;17.33;;
43256;SDS011;28860;43.212;27.934;2022-07-30T04:29:59;27.55;;;19.10;;
43256;SDS011;28860;43.212;27.934;2022-07-30T04:32:28;30.77;;;18.63;;
43256;SDS011;28860;43.212;27.934;2022-07-30T04:34:55;27.10;;;18.10;;
43256;SDS011;28860;43.212;27.934;2022-07-30T04:37:25;29.77;;;20.35;;
43256;SDS011;28860;43.212;27.934;2022-07-30T04:39:52;28.88;;;19.35;;
43256;SDS011;28860;43.212;27.934;2022-07-30T04:42:19;30.23;;;19.13;;
43256;SDS011;28860;43.212;27.934;2022-07-30T04:47:40;25.98;;;17.10;;
43256;SDS011;28860;43.212;27.934;2022-07-30T04:50:07;23.75;;;15.98;;
43256;SDS011;28860;43.212;27.934;2022-07-30T04:52:40;20.92;;;15.05;;
43256;SDS011;28860;43.212;27.934;2022-07-30T04:55:07;23.60;;;14.43;;
43256;SDS011;28860;43.212;27.934;2022-07-30T04:57:36;24.40;;;14.55;;
43256;SDS011;28860;43.212;27.934;2022-07-30T05:03:21;25.48;;;15.88;;
43256;SDS011;28860;43.212;27.934;2022-07-30T05:05:49;25.92;;;15.18;;
43256;SDS011;28860;43.212;27.934;2022-07-30T05:08:17;27.33;;;15.38;;
43256;SDS011;28860;43.212;27.934;2022-07-30T05:10:44;23.55;;;14.75;;
43256;SDS011;28860;43.212;27.934;2022-07-30T05:13:11;24.50;;;15.43;;
43256;SDS011;28860;43.212;27.934;2022-07-30T05:15:38;28.52;;;16.10;;
43256;SDS011;28860;43.212;27.934;2022-07-30T05:21:37;26.63;;;14.90;;
43256;SDS011;28860;43.212;27.934;2022-07-30T05:24:03;19.95;;;14.82;;
43256;SDS011;28860;43.212;27.934;2022-07-30T05:26:30;25.65;;;17.65;;
43256;SDS011;28860;43.212;27.934;2022-07-30T05:29:09;26.30;;;17.27;;
43256;SDS011;28860;43.212;27.934;2022-07-30T05:31:35;26.83;;;17.20;;
43256;SDS011;28860;43.212;27.934;2022-07-30T05:34:01;31.83;;;18.30;;
43256;SDS011;28860;43.212;27.934;2022-07-30T05:36:31;26.42;;;18.00;;
43256;SDS011;28860;43.212;27.934;2022-07-30T05:39:26;32.10;;;19.77;;
43256;SDS011;28860;43.212;27.934;2022-07-30T05:41:52;29.50;;;19.70;;
43256;SDS011;28860;43.212;27.934;2022-07-30T05:44:19;28.25;;;18.98;;
43256;SDS011;28860;43.212;27.934;2022-07-30T05:47:04;36.20;;;20.30;;
43256;SDS011;28860;43.212;27.934;2022-07-30T21:48:38;15.80;;;8.32;;
43256;SDS011;28860;43.212;27.934;2022-07-30T21:51:05;14.68;;;8.93;;
43256;SDS011;28860;43.212;27.934;2022-07-30T21:53:32;14.00;;;8.48;;
43256;SDS011;28860;43.212;27.934;2022-07-30T21:55:58;22.67;;;9.05;;
43256;SDS011;28860;43.212;27.934;2022-07-30T21:58:29;11.20;;;8.75;;
43256;SDS011;28860;43.212;27.934;2022-07-30T22:00:58;14.98;;;7.85;;
43256;SDS011;28860;43.212;27.934;2022-07-30T22:03:38;12.57;;;8.52;;
43256;SDS011;28860;43.212;27.934;2022-07-30T22:06:04;12.73;;;8.52;;
43256;SDS011;28860;43.212;27.934;2022-07-30T22:08:30;16.80;;;8.90;;
43256;SDS011;28860;43.212;27.934;2022-07-30T22:11:10;11.57;;;8.43;;
43256;SDS011;28860;43.212;27.934;2022-07-30T22:13:36;13.05;;;9.25;;
43256;SDS011;28860;43.212;27.934;2022-07-30T22:16:03;10.52;;;8.25;;
43256;SDS011;28860;43.212;27.934;2022-07-30T22:18:33;12.13;;;8.63;;
43256;SDS011;28860;43.212;27.934;2022-07-30T22:21:00;10.52;;;9.18;;
43256;SDS011;28860;43.212;27.934;2022-07-30T22:23:26;14.13;;;9.30;;
43256;SDS011;28860;43.212;27.934;2022-07-30T22:25:52;13.18;;;9.50;;
43256;SDS011;28860;43.212;27.934;2022-07-30T22:28:20;13.52;;;8.80;;
43256;SDS011;28860;43.212;27.934;2022-07-30T22:30:45;11.30;;;9.30;;
43256;SDS011;28860;43.212;27.934;2022-07-30T22:33:22;12.45;;;9.40;;
43256;SDS011;28860;43.212;27.934;2022-07-30T22:35:49;17.25;;;9.80;;
43256;SDS011;28860;43.212;27.934;2022-07-30T22:38:15;14.65;;;9.40;;
43256;SDS011;28860;43.212;27.934;2022-07-30T22:40:43;22.75;;;9.23;;
43256;SDS011;28860;43.212;27.934;2022-07-30T22:43:09;12.00;;;9.00;;
43256;SDS011;28860;43.212;27.934;2022-07-30T22:45:36;18.73;;;9.95;;
43256;SDS011;28860;43.212;27.934;2022-07-30T22:48:03;14.90;;;9.43;;
43256;SDS011;28860;43.212;27.934;2022-07-30T22:50:29;15.63;;;9.68;;
43256;SDS011;28860;43.212;27.934;2022-07-30T22:52:55;17.95;;;9.52;;
43256;SDS011;28860;43.212;27.934;2022-07-30T22:55:21;18.23;;;10.57;;
43256;SDS011;28860;43.212;27.934;2022-07-30T22:57:47;14.70;;;9.88;;
43256;SDS011;28860;43.212;27.934;2022-07-30T23:00:16;14.30;;;8.85;;
43256;SDS011;28860;43.212;27.934;2022-07-30T23:02:43;10.70;;;8.85;;
43256;SDS011;28860;43.212;27.934;2022-07-30T23:05:10;15.35;;;9.48;;
43256;SDS011;28860;43.212;27.934;2022-07-30T23:07:38;20.42;;;9.30;;
43256;SDS011;28860;43.212;27.934;2022-07-30T23:10:07;11.88;;;8.77;;
43256;SDS011;28860;43.212;27.934;2022-07-30T23:12:34;13.55;;;8.95;;
43256;SDS011;28860;43.212;27.934;2022-07-30T23:15:02;17.15;;;9.48;;
43256;SDS011;28860;43.212;27.934;2022-07-30T23:17:33;20.90;;;9.75;;
43256;SDS011;28860;43.212;27.934;2022-07-30T23:20:04;13.77;;;9.15;;
43256;SDS011;28860;43.212;27.934;2022-07-30T23:22:31;12.57;;;8.77;;
43256;SDS011;28860;43.212;27.934;2022-07-30T23:25:04;11.85;;;8.18;;
43256;SDS011;28860;43.212;27.934;2022-07-30T23:27:34;11.55;;;8.77;;
43256;SDS011;28860;43.212;27.934;2022-07-30T23:30:00;12.57;;;8.88;;
43256;SDS011;28860;43.212;27.934;2022-07-30T23:32:27;15.95;;;8.95;;
43256;SDS011;28860;43.212;27.934;2022-07-30T23:34:54;13.57;;;8.68;;
43256;SDS011;28860;43.212;27.934;2022-07-30T23:37:20;14.10;;;8.20;;
43256;SDS011;28860;43.212;27.934;2022-07-30T23:39:49;11.43;;;6.93;;
43256;SDS011;28860;43.212;27.934;2022-07-30T23:42:15;16.13;;;7.78;;
43256;SDS011;28860;43.212;27.934;2022-07-30T23:44:45;16.85;;;7.75;;
43256;SDS011;28860;43.212;27.934;2022-07-30T23:47:14;9.18;;;6.85;;
